Weather at Huseby Airstrip

Public forecast

Using degrees Celsius for public forecast. Weather courtesy of forecast.io.

Closest aviation weather report (METAR) to Huseby Airstrip

Closest report is Moss Airport, Rygge, 6.8 nm (12.5 km) N.

2024/05/20 17:50 (retrieved 31 minutes ago)

ENRY 201750Z AUTO 12008KT 9999 NCD 20/05 Q1018

Closest aviation forecast (TAF) to Huseby Airstrip

Closest forecast is Moss Airport, Rygge, 6.8 nm (12.5 km) N.

2024/05/20 18:39 (retrieved 0 seconds ago)

TAF TAF ENRY 201700Z 2018/2118 10005KT CAVOK